Time;durP1;ratioP1;P1;durP2;ratioP2;P2;SDS_P1;SDS_P2;PMS_P1;PMS_P2;Temp;Humidity;BMP_temperature;BMP_pressure;BME280_temperature;BME280_humidity;BME280_pressure;Samples;Min_cycle;Max_cycle;Signal;HPM_P1;HPM_P2
2023/03/22 00:02:07;;;;;;;;;;;11.60;99.90;;;;;;6213300;23;19978;-87
2023/03/22 00:04:33;;;;;;;;;;;11.60;99.90;;;;;;6215018;23;19958;-84
2023/03/22 00:06:58;;;;;;;;;;;11.60;99.90;;;;;;6214405;23;19900;-84
2023/03/22 00:09:24;;;;;;;;;;;11.60;99.90;;;;;;6187032;23;19900;-83
2023/03/22 00:11:49;;;;;;;;;;;11.70;99.90;;;;;;6216096;23;20309;-86
2023/03/22 00:14:16;;;;;;;;;;;11.70;99.90;;;;;;6216199;23;19899;-86
2023/03/22 00:16:41;;;;;;;;;;;11.60;99.90;;;;;;6217325;23;19962;-87
2023/03/22 00:19:07;;;;;;;;;;;11.70;99.90;;;;;;6190567;23;19900;-88
2023/03/22 00:21:33;;;;;;;;;;;11.60;99.90;;;;;;6217569;23;19908;-85
2023/03/22 00:23:58;;;;;;;;;;;11.60;99.90;;;;;;6215477;23;20351;-88
2023/03/22 00:26:24;;;;;;;;;;;11.60;99.90;;;;;;6216672;23;19974;-83
2023/03/22 00:28:49;;;;;;;;;;;11.60;99.90;;;;;;6216860;23;19907;-86
2023/03/22 00:31:15;;;;;;;;;;;11.60;99.90;;;;;;6215948;23;19923;-85
2023/03/22 00:33:40;;;;;;;;;;;11.60;99.90;;;;;;6216720;23;19900;-84
2023/03/22 00:36:08;;;;;;;;;;;11.70;99.90;;;;;;6217810;23;20241;-83
2023/03/22 00:38:37;;;;;;;;;;;11.70;99.90;;;;;;6219009;23;19951;-87
2023/03/22 00:41:14;;;;;;;;;;;11.60;99.90;;;;;;6220284;23;19908;-83
2023/03/22 00:43:40;;;;;;;;;;;11.70;99.90;;;;;;6222507;23;19907;-83
2023/03/22 00:46:06;;;;;;;;;;;11.70;99.90;;;;;;6191828;23;19900;-85
2023/03/22 00:48:31;;;;;;;;;;;11.70;99.90;;;;;;6218665;23;19903;-85
2023/03/22 00:50:57;;;;;;;;;;;11.70;99.90;;;;;;6216840;23;19900;-84
2023/03/22 00:53:22;;;;;;;;;;;11.70;99.90;;;;;;6219977;23;19939;-87
2023/03/22 00:55:48;;;;;;;;;;;11.30;99.90;;;;;;6195485;23;19978;-83
2023/03/22 00:58:13;;;;;;;;;;;11.80;99.90;;;;;;6223564;23;19900;-83
2023/03/22 01:00:39;;;;;;;;;;;11.70;99.90;;;;;;6195173;23;19904;-86
2023/03/22 01:03:05;;;;;;;;;;;11.80;99.90;;;;;;6223238;23;19907;-83
2023/03/22 01:05:32;;;;;;;;;;;11.80;99.90;;;;;;6219690;23;19907;-84
2023/03/22 01:08:11;;;;;;;;;;;11.80;99.90;;;;;;6220749;23;19899;-85
2023/03/22 01:10:38;;;;;;;;;;;11.80;99.90;;;;;;6221623;23;19901;-84
2023/03/22 01:13:04;;;;;;;;;;;11.80;99.90;;;;;;6219505;23;19900;-83
2023/03/22 01:15:30;;;;;;;;;;;11.70;99.90;;;;;;6219888;23;19976;-84
2023/03/22 01:17:56;;;;;;;;;;;11.80;99.90;;;;;;6191612;23;19904;-84
2023/03/22 01:20:22;;;;;;;;;;;11.70;99.90;;;;;;6195963;23;20256;-85
2023/03/22 01:22:47;;;;;;;;;;;11.80;99.90;;;;;;6221728;23;19900;-88
2023/03/22 01:25:14;;;;;;;;;;;11.80;99.90;;;;;;6220751;23;19900;-84
2023/03/22 01:27:40;;;;;;;;;;;11.70;99.90;;;;;;6221066;23;19900;-86
2023/03/22 01:30:06;;;;;;;;;;;11.80;99.90;;;;;;6218565;23;19938;-84
2023/03/22 01:32:31;;;;;;;;;;;11.70;99.90;;;;;;6221766;23;19907;-83
2023/03/22 01:34:57;;;;;;;;;;;11.70;99.90;;;;;;6219505;23;19951;-83
2023/03/22 01:37:26;;;;;;;;;;;11.60;99.90;;;;;;6192578;23;19900;-86
2023/03/22 01:39:54;;;;;;;;;;;11.70;99.90;;;;;;6217334;23;20393;-86
2023/03/22 01:42:21;;;;;;;;;;;11.70;99.90;;;;;;6217861;23;19949;-85
2023/03/22 01:45:06;;;;;;;;;;;11.80;99.90;;;;;;6220558;23;20276;-84
2023/03/22 01:47:32;;;;;;;;;;;11.80;99.90;;;;;;6218948;23;19907;-85
2023/03/22 01:49:58;;;;;;;;;;;11.80;99.90;;;;;;6194532;23;19900;-83
2023/03/22 01:52:24;;;;;;;;;;;11.80;99.90;;;;;;6192974;23;20217;-87
2023/03/22 01:54:50;;;;;;;;;;;11.80;99.90;;;;;;6218022;23;19908;-85
2023/03/22 01:57:17;;;;;;;;;;;11.80;99.90;;;;;;6218764;23;20329;-84
2023/03/22 01:59:43;;;;;;;;;;;11.80;99.90;;;;;;6217719;23;19914;-83
2023/03/22 02:02:09;;;;;;;;;;;11.80;99.90;;;;;;6219496;23;19900;-87
2023/03/22 02:04:37;;;;;;;;;;;11.80;99.90;;;;;;6218005;23;19940;-92
2023/03/22 02:07:08;;;;;;;;;;;11.80;99.90;;;;;;6216232;23;19904;-84
2023/03/22 02:09:38;;;;;;;;;;;11.80;99.90;;;;;;6221099;23;19910;-89
2023/03/22 02:12:11;;;;;;;;;;;11.80;99.90;;;;;;6189432;23;19899;-84
2023/03/22 02:14:57;;;;;;;;;;;11.80;99.90;;;;;;6216506;23;19975;-83
2023/03/22 02:17:41;;;;;;;;;;;11.70;99.90;;;;;;6216470;23;19907;-84
2023/03/22 02:20:09;;;;;;;;;;;11.80;99.90;;;;;;6215566;23;19907;-85
2023/03/22 02:22:47;;;;;;;;;;;11.80;99.90;;;;;;6189304;23;19926;-84
2023/03/22 02:25:31;;;;;;;;;;;11.80;99.90;;;;;;6190402;23;19953;-85
2023/03/22 02:28:12;;;;;;;;;;;11.80;99.90;;;;;;6217735;23;19907;-85
2023/03/22 02:30:49;;;;;;;;;;;11.70;99.90;;;;;;6215977;23;19899;-87
2023/03/22 02:33:38;;;;;;;;;;;11.70;99.90;;;;;;6218893;23;19969;-83
2023/03/22 02:36:10;;;;;;;;;;;11.80;99.90;;;;;;6216772;23;20268;-83
2023/03/22 02:38:41;;;;;;;;;;;11.80;99.90;;;;;;6217814;23;19907;-91
2023/03/22 02:41:17;;;;;;;;;;;11.70;99.90;;;;;;6219954;23;19991;-84
2023/03/22 02:44:02;;;;;;;;;;;11.70;99.90;;;;;;6190969;23;19903;-87
2023/03/22 02:46:31;;;;;;;;;;;11.80;99.90;;;;;;6220759;23;19920;-86
2023/03/22 02:49:07;;;;;;;;;;;11.80;99.90;;;;;;6192489;23;19943;-87
2023/03/22 02:51:55;;;;;;;;;;;11.80;99.90;;;;;;6217867;23;19980;-84
2023/03/22 02:54:25;;;;;;;;;;;11.80;99.90;;;;;;6197585;23;19907;-86
2023/03/22 02:57:10;;;;;;;;;;;11.80;99.90;;;;;;6194912;23;19906;-84
2023/03/22 02:59:38;;;;;;;;;;;11.70;99.90;;;;;;6190631;23;20210;-85
2023/03/22 03:02:05;;;;;;;;;;;11.70;99.90;;;;;;6219988;23;19903;-86
2023/03/22 03:04:33;;;;;;;;;;;11.70;99.90;;;;;;6219482;23;19900;-89
2023/03/22 03:07:01;;;;;;;;;;;11.70;99.90;;;;;;6196544;23;19906;-84
2023/03/22 03:09:27;;;;;;;;;;;11.80;99.90;;;;;;6218640;23;19900;-85
2023/03/22 03:11:53;;;;;;;;;;;11.70;99.90;;;;;;6191217;23;19904;-84
2023/03/22 03:14:26;;;;;;;;;;;11.80;99.90;;;;;;6219373;23;19900;-84
2023/03/22 03:17:03;;;;;;;;;;;11.80;99.90;;;;;;6191868;23;20210;-87
2023/03/22 03:19:44;;;;;;;;;;;11.80;99.90;;;;;;6219154;23;19915;-84
2023/03/22 03:22:29;;;;;;;;;;;11.80;99.90;;;;;;6218938;23;20328;-86
2023/03/22 03:24:57;;;;;;;;;;;11.70;99.90;;;;;;6221139;23;19904;-83
2023/03/22 03:27:43;;;;;;;;;;;11.80;99.90;;;;;;6194290;23;19907;-84
2023/03/22 03:30:14;;;;;;;;;;;11.80;99.90;;;;;;6218682;23;19979;-84
2023/03/22 03:32:48;;;;;;;;;;;11.80;99.90;;;;;;6218530;23;19899;-84
2023/03/22 03:35:40;;;;;;;;;;;11.80;99.90;;;;;;6218181;23;19987;-87
2023/03/22 03:38:11;;;;;;;;;;;11.80;99.90;;;;;;6213665;23;19899;-88
2023/03/22 03:40:49;;;;;;;;;;;11.80;99.90;;;;;;6221405;23;19908;-84
2023/03/22 03:43:15;;;;;;;;;;;11.80;99.90;;;;;;6219080;23;19930;-83
2023/03/22 03:45:41;;;;;;;;;;;11.80;99.90;;;;;;6219797;23;19900;-85
2023/03/22 03:48:15;;;;;;;;;;;11.80;99.90;;;;;;6191724;23;19900;-89
2023/03/22 03:50:41;;;;;;;;;;;11.80;99.90;;;;;;6216329;23;20236;-85
2023/03/22 03:53:06;;;;;;;;;;;11.80;99.90;;;;;;6219240;23;19940;-91
2023/03/22 03:55:32;;;;;;;;;;;11.80;99.90;;;;;;6224876;23;19903;-82
2023/03/22 03:57:59;;;;;;;;;;;11.80;99.90;;;;;;6222527;23;19900;-83
2023/03/22 04:00:26;;;;;;;;;;;11.80;99.90;;;;;;6224091;23;19903;-87
2023/03/22 04:02:51;;;;;;;;;;;11.80;99.90;;;;;;6227502;23;19967;-82
2023/03/22 04:05:17;;;;;;;;;;;11.90;99.90;;;;;;6222489;23;19978;-84
2023/03/22 04:07:44;;;;;;;;;;;11.80;99.90;;;;;;6220965;23;19906;-83
2023/03/22 04:10:10;;;;;;;;;;;11.90;99.90;;;;;;6219657;23;19900;-84
2023/03/22 04:12:35;;;;;;;;;;;11.80;99.90;;;;;;6197680;23;19907;-87
2023/03/22 04:15:01;;;;;;;;;;;11.90;99.90;;;;;;6218712;23;19902;-83
2023/03/22 04:17:28;;;;;;;;;;;11.80;99.90;;;;;;6214786;23;19930;-85
2023/03/22 04:19:55;;;;;;;;;;;11.80;99.90;;;;;;6212914;23;19908;-83
2023/03/22 04:22:21;;;;;;;;;;;11.90;99.90;;;;;;6212393;23;19907;-84
2023/03/22 04:24:49;;;;;;;;;;;11.90;99.90;;;;;;6213344;23;19899;-86
2023/03/22 04:27:17;;;;;;;;;;;11.90;99.90;;;;;;6185701;23;19907;-89
2023/03/22 04:29:47;;;;;;;;;;;11.80;99.90;;;;;;6185430;23;19904;-88
2023/03/22 04:32:17;;;;;;;;;;;11.90;99.90;;;;;;6220787;23;20720;-88
2023/03/22 04:34:44;;;;;;;;;;;11.90;99.90;;;;;;6218567;23;19908;-88
2023/03/22 04:37:11;;;;;;;;;;;11.90;99.90;;;;;;6216812;23;19924;-87
2023/03/22 04:39:37;;;;;;;;;;;11.90;99.90;;;;;;6219147;23;19900;-88
2023/03/22 04:42:02;;;;;;;;;;;11.90;99.90;;;;;;6214295;23;19978;-87
2023/03/22 04:44:29;;;;;;;;;;;11.90;99.90;;;;;;6188796;23;19908;-88
2023/03/22 04:46:55;;;;;;;;;;;12.00;99.90;;;;;;6214025;23;19954;-88
2023/03/22 04:49:25;;;;;;;;;;;11.90;99.90;;;;;;6216343;23;19923;-87
2023/03/22 04:51:52;;;;;;;;;;;11.90;99.90;;;;;;6214785;23;19900;-84
2023/03/22 04:54:18;;;;;;;;;;;11.90;99.90;;;;;;6216190;23;19900;-84
2023/03/22 04:56:44;;;;;;;;;;;11.90;99.90;;;;;;6186344;23;19907;-84
2023/03/22 04:59:09;;;;;;;;;;;11.90;99.90;;;;;;6213821;23;19935;-84
2023/03/22 05:01:36;;;;;;;;;;;11.90;99.90;;;;;;6192099;23;20036;-86
2023/03/22 05:04:02;;;;;;;;;;;11.90;99.90;;;;;;6217312;23;19934;-84
2023/03/22 05:06:33;;;;;;;;;;;11.90;99.90;;;;;;6211835;23;20218;-85
2023/03/22 05:08:59;;;;;;;;;;;11.90;99.90;;;;;;6220146;23;19907;-84
2023/03/22 05:11:26;;;;;;;;;;;11.90;99.90;;;;;;6227707;23;19904;-84
2023/03/22 05:13:53;;;;;;;;;;;11.80;99.90;;;;;;6224669;23;20253;-84
2023/03/22 05:16:18;;;;;;;;;;;11.80;99.90;;;;;;6224336;23;19904;-84
2023/03/22 05:18:47;;;;;;;;;;;11.80;99.90;;;;;;6223140;23;19907;-84
2023/03/22 05:21:14;;;;;;;;;;;11.90;99.90;;;;;;6215333;23;19923;-84
2023/03/22 05:23:41;;;;;;;;;;;11.90;99.90;;;;;;6194825;23;19907;-85
2023/03/22 05:26:09;;;;;;;;;;;11.90;99.90;;;;;;6225296;23;19900;-86
2023/03/22 05:28:35;;;;;;;;;;;11.90;99.90;;;;;;6218546;23;19908;-85
2023/03/22 05:31:02;;;;;;;;;;;11.90;99.90;;;;;;6217949;23;19900;-85
2023/03/22 05:33:28;;;;;;;;;;;11.90;99.90;;;;;;6218163;23;19907;-87
2023/03/22 05:35:54;;;;;;;;;;;11.90;99.90;;;;;;6217766;23;19954;-85
2023/03/22 05:38:21;;;;;;;;;;;11.80;99.90;;;;;;6217875;23;19900;-87
2023/03/22 05:40:50;;;;;;;;;;;11.80;99.90;;;;;;6217750;23;19908;-90
2023/03/22 05:43:15;;;;;;;;;;;11.90;99.90;;;;;;6216516;23;19900;-86
2023/03/22 05:45:41;;;;;;;;;;;12.00;99.90;;;;;;6214868;23;19899;-89
2023/03/22 05:48:06;;;;;;;;;;;11.90;99.90;;;;;;6220083;23;19900;-85
2023/03/22 05:50:32;;;;;;;;;;;11.90;99.90;;;;;;6217860;23;20241;-86
2023/03/22 05:52:58;;;;;;;;;;;11.90;99.90;;;;;;6218415;23;19899;-91
2023/03/22 05:55:24;;;;;;;;;;;11.90;99.90;;;;;;6190029;23;20230;-88
2023/03/22 05:57:50;;;;;;;;;;;11.90;99.90;;;;;;6191617;23;19922;-89
2023/03/22 06:00:16;;;;;;;;;;;11.90;99.90;;;;;;6217355;23;19931;-86
2023/03/22 06:02:44;;;;;;;;;;;11.80;99.90;;;;;;6221308;23;20077;-85
2023/03/22 06:05:11;;;;;;;;;;;11.90;99.90;;;;;;6170563;23;19904;-86
2023/03/22 06:07:37;;;;;;;;;;;11.70;99.90;;;;;;6217958;23;19915;-86
2023/03/22 06:10:03;;;;;;;;;;;11.90;99.90;;;;;;6217582;23;19908;-86
2023/03/22 06:12:29;;;;;;;;;;;11.90;99.90;;;;;;6215925;23;19900;-87
2023/03/22 06:14:54;;;;;;;;;;;11.90;99.90;;;;;;6195064;23;19950;-86
2023/03/22 06:17:20;;;;;;;;;;;11.90;99.90;;;;;;6191907;23;20236;-86
2023/03/22 06:19:46;;;;;;;;;;;12.00;99.90;;;;;;6193512;23;19937;-86
2023/03/22 06:22:12;;;;;;;;;;;11.90;99.90;;;;;;6222644;23;19924;-85
2023/03/22 06:24:39;;;;;;;;;;;11.80;99.90;;;;;;6219013;23;19923;-85
2023/03/22 06:27:05;;;;;;;;;;;11.90;99.90;;;;;;6190418;23;19979;-85
2023/03/22 06:29:31;;;;;;;;;;;11.80;99.90;;;;;;6216860;23;19971;-85
2023/03/22 06:31:57;;;;;;;;;;;11.80;99.90;;;;;;6190086;23;19904;-85
2023/03/22 06:34:23;;;;;;;;;;;11.90;99.90;;;;;;6216703;23;19903;-85
2023/03/22 06:36:48;;;;;;;;;;;11.90;99.90;;;;;;6188460;23;19907;-86
2023/03/22 06:39:14;;;;;;;;;;;11.80;99.90;;;;;;6214944;23;19900;-85
2023/03/22 06:41:39;;;;;;;;;;;11.80;99.90;;;;;;6214905;23;19907;-86
2023/03/22 06:44:05;;;;;;;;;;;11.90;99.90;;;;;;6217213;23;19904;-86
2023/03/22 06:46:34;;;;;;;;;;;11.80;99.90;;;;;;6188725;23;19900;-86
2023/03/22 06:49:02;;;;;;;;;;;11.80;99.90;;;;;;6214487;23;19900;-85
2023/03/22 06:51:28;;;;;;;;;;;11.80;99.90;;;;;;6215578;23;19900;-85
2023/03/22 06:53:53;;;;;;;;;;;11.80;99.90;;;;;;6189008;23;19911;-85
2023/03/22 06:56:19;;;;;;;;;;;11.80;99.90;;;;;;6188723;23;19907;-85
2023/03/22 06:58:44;;;;;;;;;;;11.80;99.90;;;;;;6216638;23;19900;-86
2023/03/22 07:01:10;;;;;;;;;;;11.80;99.90;;;;;;6216228;23;19911;-85
2023/03/22 07:03:36;;;;;;;;;;;11.80;99.90;;;;;;6217107;23;20360;-85
2023/03/22 07:06:06;;;;;;;;;;;11.80;99.90;;;;;;6191522;23;20325;-87
2023/03/22 07:08:32;;;;;;;;;;;11.80;99.90;;;;;;6218604;23;19957;-86
2023/03/22 07:10:58;;;;;;;;;;;11.80;99.90;;;;;;6217197;23;19900;-85
2023/03/22 07:13:23;;;;;;;;;;;11.80;99.90;;;;;;6217161;23;19900;-85
2023/03/22 07:15:53;;;;;;;;;;;11.90;99.90;;;;;;6216222;23;19907;-85
2023/03/22 07:18:19;;;;;;;;;;;11.90;99.90;;;;;;6218986;23;19904;-86
2023/03/22 07:20:44;;;;;;;;;;;11.80;99.90;;;;;;6193933;23;19912;-85
2023/03/22 07:23:10;;;;;;;;;;;11.90;99.90;;;;;;6198442;23;20276;-86
2023/03/22 07:25:35;;;;;;;;;;;11.90;99.90;;;;;;6226477;23;20386;-90
2023/03/22 07:28:01;;;;;;;;;;;11.80;99.90;;;;;;6227819;23;19920;-85
2023/03/22 07:30:26;;;;;;;;;;;11.90;99.90;;;;;;6227718;23;19907;-87
2023/03/22 07:32:52;;;;;;;;;;;11.90;99.90;;;;;;6200047;23;19900;-85
2023/03/22 07:35:17;;;;;;;;;;;11.90;99.90;;;;;;6229285;23;19904;-86
2023/03/22 07:37:43;;;;;;;;;;;12.00;99.90;;;;;;6227168;23;19911;-91
2023/03/22 07:40:09;;;;;;;;;;;12.00;99.90;;;;;;6225629;23;19904;-87
2023/03/22 07:42:35;;;;;;;;;;;11.90;99.90;;;;;;6201404;23;19952;-86
2023/03/22 07:45:00;;;;;;;;;;;11.90;99.90;;;;;;6227108;23;19904;-85
2023/03/22 07:47:26;;;;;;;;;;;12.00;99.90;;;;;;6226468;23;19924;-85
2023/03/22 07:49:51;;;;;;;;;;;12.00;99.90;;;;;;6229351;23;20260;-85
2023/03/22 07:52:20;;;;;;;;;;;12.00;99.90;;;;;;6228576;23;19907;-86
2023/03/22 07:54:45;;;;;;;;;;;11.80;99.90;;;;;;6227529;23;19907;-86
2023/03/22 07:57:10;;;;;;;;;;;12.00;99.90;;;;;;6200814;23;20295;-86
2023/03/22 07:59:36;;;;;;;;;;;12.00;99.90;;;;;;6200403;23;19899;-86
2023/03/22 08:02:03;;;;;;;;;;;12.00;99.90;;;;;;6224040;23;19904;-87
2023/03/22 08:04:29;;;;;;;;;;;12.00;99.90;;;;;;6228078;23;19944;-86
2023/03/22 08:06:57;;;;;;;;;;;12.00;99.90;;;;;;6200644;23;19919;-86
2023/03/22 08:09:24;;;;;;;;;;;12.10;99.90;;;;;;6228031;23;19935;-85
2023/03/22 08:11:50;;;;;;;;;;;12.10;99.90;;;;;;6227702;23;20344;-88
2023/03/22 08:14:15;;;;;;;;;;;12.10;99.90;;;;;;6227911;23;19900;-86
2023/03/22 08:16:42;;;;;;;;;;;12.10;99.90;;;;;;6227137;23;19900;-88
2023/03/22 08:19:08;;;;;;;;;;;12.10;99.90;;;;;;6229734;23;19964;-86
2023/03/22 08:21:34;;;;;;;;;;;12.20;99.90;;;;;;6199995;23;20329;-86
2023/03/22 08:23:59;;;;;;;;;;;12.20;99.90;;;;;;6229970;23;19919;-86
2023/03/22 08:26:26;;;;;;;;;;;12.30;99.90;;;;;;6202558;23;19919;-86
2023/03/22 08:28:51;;;;;;;;;;;12.30;99.90;;;;;;6199336;23;19907;-85
2023/03/22 08:31:17;;;;;;;;;;;12.30;99.90;;;;;;6201262;23;19900;-85
2023/03/22 08:33:43;;;;;;;;;;;12.40;99.90;;;;;;6190982;23;19904;-86
2023/03/22 08:36:12;;;;;;;;;;;12.50;99.90;;;;;;6217437;23;20287;-86
2023/03/22 08:38:38;;;;;;;;;;;12.50;99.90;;;;;;6221427;23;19963;-87
2023/03/22 08:41:03;;;;;;;;;;;12.50;99.90;;;;;;6196603;23;19908;-88
2023/03/22 08:43:29;;;;;;;;;;;12.60;99.90;;;;;;6194702;23;19954;-86
2023/03/22 08:45:55;;;;;;;;;;;12.60;99.90;;;;;;6219325;23;19900;-86
2023/03/22 08:48:20;;;;;;;;;;;12.60;99.90;;;;;;6191033;23;19900;-86
2023/03/22 08:50:46;;;;;;;;;;;12.50;99.90;;;;;;6218090;23;19911;-86
2023/03/22 08:53:12;;;;;;;;;;;12.60;99.90;;;;;;6218455;23;19946;-87
2023/03/22 08:55:38;;;;;;;;;;;12.60;99.90;;;;;;6218998;23;19899;-86
2023/03/22 08:58:04;;;;;;;;;;;12.60;99.90;;;;;;6215240;23;19900;-87
2023/03/22 09:00:30;;;;;;;;;;;12.60;99.90;;;;;;6218429;23;20210;-86
2023/03/22 09:02:56;;;;;;;;;;;12.60;99.90;;;;;;6192791;23;19907;-85
2023/03/22 09:05:24;;;;;;;;;;;12.60;99.90;;;;;;6192229;23;19900;-85
2023/03/22 09:07:56;;;;;;;;;;;12.60;99.90;;;;;;6220569;23;19922;-86
2023/03/22 09:10:24;;;;;;;;;;;12.60;99.90;;;;;;6220636;23;20251;-85
2023/03/22 09:12:50;;;;;;;;;;;12.70;99.90;;;;;;6198728;23;19899;-86
2023/03/22 09:15:15;;;;;;;;;;;12.70;99.90;;;;;;6225214;23;19946;-86
2023/03/22 09:17:41;;;;;;;;;;;12.70;99.90;;;;;;6223439;23;19929;-87
2023/03/22 09:20:08;;;;;;;;;;;12.80;99.90;;;;;;6224006;23;19912;-89
2023/03/22 09:22:33;;;;;;;;;;;12.80;99.90;;;;;;6220061;23;19904;-85
2023/03/22 09:24:59;;;;;;;;;;;12.80;99.90;;;;;;6189202;23;19926;-87
2023/03/22 09:27:25;;;;;;;;;;;12.90;99.90;;;;;;6216670;23;19906;-87
2023/03/22 09:29:51;;;;;;;;;;;13.00;99.90;;;;;;6216742;23;19900;-86
2023/03/22 09:32:17;;;;;;;;;;;13.00;99.90;;;;;;6189621;23;20206;-86
2023/03/22 09:34:42;;;;;;;;;;;13.00;99.90;;;;;;6216511;23;19935;-87
2023/03/22 09:37:08;;;;;;;;;;;13.00;99.90;;;;;;6215679;23;20214;-89
2023/03/22 09:39:37;;;;;;;;;;;13.00;99.90;;;;;;6214801;23;19900;-85
2023/03/22 09:42:04;;;;;;;;;;;13.00;99.90;;;;;;6188224;23;19907;-86
2023/03/22 09:44:35;;;;;;;;;;;12.90;99.90;;;;;;6215376;23;19962;-86
2023/03/22 09:47:02;;;;;;;;;;;12.90;99.90;;;;;;6222645;23;19923;-87
2023/03/22 09:49:32;;;;;;;;;;;12.90;99.90;;;;;;6224685;23;19919;-87
2023/03/22 09:51:57;;;;;;;;;;;12.90;99.90;;;;;;6196604;23;19947;-86
2023/03/22 09:54:30;;;;;;;;;;;12.90;99.90;;;;;;6221734;23;19903;-87
2023/03/22 09:56:59;;;;;;;;;;;12.90;99.90;;;;;;6199624;23;19907;-88
2023/03/22 09:59:30;;;;;;;;;;;12.90;99.90;;;;;;6223145;23;19900;-86
2023/03/22 10:02:10;;;;;;;;;;;12.80;99.90;;;;;;6198267;23;19908;-92
2023/03/22 10:04:54;;;;;;;;;;;12.90;99.90;;;;;;6223940;23;19935;-86
2023/03/22 10:07:30;;;;;;;;;;;12.80;99.90;;;;;;6223306;23;19900;-90
2023/03/22 10:10:17;;;;;;;;;;;12.80;99.90;;;;;;6225859;23;19900;-85
2023/03/22 10:13:06;;;;;;;;;;;12.80;99.90;;;;;;6223510;23;19958;-85
2023/03/22 10:15:36;;;;;;;;;;;12.70;99.90;;;;;;6199931;23;19974;-86
2023/03/22 10:18:04;;;;;;;;;;;12.80;99.90;;;;;;6223554;23;19899;-85
2023/03/22 10:20:33;;;;;;;;;;;12.70;99.90;;;;;;6227133;23;19912;-92
2023/03/22 10:23:00;;;;;;;;;;;12.70;99.90;;;;;;6198209;23;19943;-85
2023/03/22 10:25:34;;;;;;;;;;;12.80;99.90;;;;;;6226407;23;19954;-86
2023/03/22 10:28:00;;;;;;;;;;;12.80;99.90;;;;;;6200329;23;19899;-86
2023/03/22 10:30:29;;;;;;;;;;;12.90;99.90;;;;;;6231014;23;19900;-86
2023/03/22 10:33:10;;;;;;;;;;;12.80;99.90;;;;;;6211962;23;19911;-92
2023/03/22 10:35:36;;;;;;;;;;;12.90;99.90;;;;;;6236099;23;19899;-86
2023/03/22 10:38:03;;;;;;;;;;;12.90;99.90;;;;;;6239517;23;19900;-89
2023/03/22 10:40:33;;;;;;;;;;;12.90;99.90;;;;;;6210636;23;19925;-86
2023/03/22 10:43:02;;;;;;;;;;;12.90;99.90;;;;;;6196068;23;19997;-86
2023/03/22 10:45:30;;;;;;;;;;;12.90;99.90;;;;;;6214838;23;19907;-89
2023/03/22 10:48:01;;;;;;;;;;;12.80;99.90;;;;;;6215295;23;20218;-86
2023/03/22 10:50:32;;;;;;;;;;;12.80;99.90;;;;;;6215583;23;19975;-86
2023/03/22 10:52:58;;;;;;;;;;;12.80;99.90;;;;;;6189457;23;19900;-87
2023/03/22 10:55:24;;;;;;;;;;;12.90;99.90;;;;;;6218037;23;20198;-88
2023/03/22 10:57:55;;;;;;;;;;;12.90;99.90;;;;;;6189072;23;19979;-86
2023/03/22 11:00:20;;;;;;;;;;;13.00;99.90;;;;;;6190260;23;19908;-86
2023/03/22 11:02:50;;;;;;;;;;;12.90;99.90;;;;;;6189914;23;19900;-89
2023/03/22 11:05:33;;;;;;;;;;;12.90;99.90;;;;;;6216390;23;19906;-86
2023/03/22 11:08:01;;;;;;;;;;;12.90;99.90;;;;;;6218599;23;19923;-86
2023/03/22 11:10:26;;;;;;;;;;;12.90;99.90;;;;;;6190648;23;19987;-86
2023/03/22 11:13:10;;;;;;;;;;;13.00;99.90;;;;;;6217109;23;19900;-85
2023/03/22 11:15:57;;;;;;;;;;;13.00;99.90;;;;;;6215502;23;19899;-86
2023/03/22 11:18:23;;;;;;;;;;;12.90;99.90;;;;;;6218935;23;19903;-86
2023/03/22 11:20:57;;;;;;;;;;;12.80;99.90;;;;;;6190059;23;19964;-87
2023/03/22 11:23:24;;;;;;;;;;;12.80;99.90;;;;;;6217288;23;20415;-86
2023/03/22 11:25:51;;;;;;;;;;;12.80;99.90;;;;;;6215997;23;19903;-86
2023/03/22 11:28:18;;;;;;;;;;;12.80;99.90;;;;;;6216179;23;19900;-86
2023/03/22 11:31:16;;;;;;;;;;;12.80;99.90;;;;;;6217919;23;19954;-86
2023/03/22 11:34:00;;;;;;;;;;;12.70;99.90;;;;;;6149016;23;19919;-89
2023/03/22 11:36:27;;;;;;;;;;;12.80;99.90;;;;;;6224497;23;19900;-85
2023/03/22 11:38:57;;;;;;;;;;;12.70;99.90;;;;;;6227969;23;19952;-86
2023/03/22 11:41:27;;;;;;;;;;;12.70;99.90;;;;;;6224019;23;19908;-86
2023/03/22 11:43:54;;;;;;;;;;;12.80;99.90;;;;;;6217323;23;19903;-85
2023/03/22 11:46:20;;;;;;;;;;;12.70;99.90;;;;;;6190241;23;20118;-86
2023/03/22 11:48:49;;;;;;;;;;;12.80;99.90;;;;;;6190053;23;19903;-86
2023/03/22 11:51:16;;;;;;;;;;;12.80;99.90;;;;;;6218015;23;19900;-86
2023/03/22 11:53:43;;;;;;;;;;;12.80;99.90;;;;;;6215623;23;19900;-87
2023/03/22 11:56:10;;;;;;;;;;;12.90;99.90;;;;;;6188667;23;19962;-87
2023/03/22 11:58:36;;;;;;;;;;;13.00;99.90;;;;;;6215884;23;19899;-87
2023/03/22 12:01:02;;;;;;;;;;;13.00;99.90;;;;;;6217253;23;19911;-86
2023/03/22 12:03:39;;;;;;;;;;;12.90;99.90;;;;;;6189393;23;19987;-87
2023/03/22 12:06:10;;;;;;;;;;;13.00;99.90;;;;;;6189210;23;20334;-86
2023/03/22 12:08:35;;;;;;;;;;;12.90;99.90;;;;;;6223637;23;19934;-88
2023/03/22 12:11:05;;;;;;;;;;;12.90;99.90;;;;;;6223878;23;19900;-87
2023/03/22 12:13:31;;;;;;;;;;;12.90;99.90;;;;;;6224250;23;19900;-86
2023/03/22 12:15:57;;;;;;;;;;;12.80;99.90;;;;;;6199328;23;19899;-88
2023/03/22 12:18:36;;;;;;;;;;;12.80;99.90;;;;;;6198024;23;20218;-87
2023/03/22 12:21:02;;;;;;;;;;;12.90;99.90;;;;;;6226247;23;19919;-87
2023/03/22 12:23:29;;;;;;;;;;;12.90;99.90;;;;;;6225694;23;19900;-87
2023/03/22 12:26:01;;;;;;;;;;;12.90;99.90;;;;;;6222905;23;19900;-88
2023/03/22 12:28:48;;;;;;;;;;;12.80;99.90;;;;;;6226243;23;19927;-87
2023/03/22 12:31:33;;;;;;;;;;;12.90;99.90;;;;;;6199826;23;19940;-87
2023/03/22 12:34:02;;;;;;;;;;;13.00;99.90;;;;;;6222403;23;19900;-88
2023/03/22 12:36:34;;;;;;;;;;;13.00;99.90;;;;;;6199100;23;19903;-87
2023/03/22 12:39:02;;;;;;;;;;;12.90;99.90;;;;;;6228073;23;19907;-89
2023/03/22 12:41:36;;;;;;;;;;;12.90;99.90;;;;;;6225519;23;19908;-87
2023/03/22 12:44:04;;;;;;;;;;;12.90;99.90;;;;;;6225051;23;19899;-86
2023/03/22 12:46:32;;;;;;;;;;;13.00;99.90;;;;;;6226116;23;19907;-88
2023/03/22 12:49:16;;;;;;;;;;;12.90;99.90;;;;;;6222343;23;19922;-87
2023/03/22 12:51:42;;;;;;;;;;;12.90;99.90;;;;;;6227013;23;19900;-89
2023/03/22 12:54:22;;;;;;;;;;;12.90;99.90;;;;;;6221458;23;19938;-87
2023/03/22 12:56:49;;;;;;;;;;;12.80;99.90;;;;;;6215427;23;20329;-86
2023/03/22 12:59:41;;;;;;;;;;;12.80;99.90;;;;;;6215751;23;19900;-86
2023/03/22 13:02:15;;;;;;;;;;;12.80;99.90;;;;;;6209256;23;19908;-87
2023/03/22 13:04:43;;;;;;;;;;;12.90;99.90;;;;;;6215504;23;19900;-86
2023/03/22 13:07:30;;;;;;;;;;;13.00;99.90;;;;;;6188898;23;19900;-87
2023/03/22 13:09:57;;;;;;;;;;;13.00;99.90;;;;;;6188801;23;19938;-87
2023/03/22 13:12:23;;;;;;;;;;;13.00;99.90;;;;;;6216856;23;19935;-86
2023/03/22 13:15:05;;;;;;;;;;;12.90;99.90;;;;;;6217604;23;20031;-86
2023/03/22 13:17:42;;;;;;;;;;;13.00;99.90;;;;;;6215312;23;19907;-86
2023/03/22 13:20:11;;;;;;;;;;;13.00;99.90;;;;;;6217828;23;19914;-86
2023/03/22 13:22:36;;;;;;;;;;;13.10;99.90;;;;;;6191085;23;19904;-87
2023/03/22 13:25:18;;;;;;;;;;;13.10;99.90;;;;;;6217886;23;19900;-87
2023/03/22 13:27:56;;;;;;;;;;;13.10;99.90;;;;;;6215010;23;19931;-86
2023/03/22 13:30:22;;;;;;;;;;;13.20;99.90;;;;;;6215802;23;19971;-87
2023/03/22 13:33:02;;;;;;;;;;;13.10;99.90;;;;;;6216289;23;20321;-87
2023/03/22 13:35:36;;;;;;;;;;;13.10;99.90;;;;;;6189588;23;19899;-88
2023/03/22 13:38:06;;;;;;;;;;;13.10;99.90;;;;;;6190698;23;20313;-86
2023/03/22 13:40:44;;;;;;;;;;;13.20;99.90;;;;;;6166212;23;19908;-87
2023/03/22 13:43:27;;;;;;;;;;;13.10;99.90;;;;;;6216269;23;19951;-86
2023/03/22 13:46:16;;;;;;;;;;;13.10;99.90;;;;;;6190511;23;19900;-86
2023/03/22 13:48:47;;;;;;;;;;;13.10;99.90;;;;;;6187955;23;20317;-95
2023/03/22 13:51:17;;;;;;;;;;;13.20;99.90;;;;;;6216858;23;19999;-87
2023/03/22 13:53:50;;;;;;;;;;;13.00;99.90;;;;;;6215214;23;19954;-86
2023/03/22 13:56:27;;;;;;;;;;;13.00;99.90;;;;;;6215106;23;19900;-86
2023/03/22 13:58:53;;;;;;;;;;;13.10;99.90;;;;;;6215099;23;19906;-86
2023/03/22 14:01:24;;;;;;;;;;;13.10;99.90;;;;;;6214719;23;19912;-86
2023/03/22 14:03:50;;;;;;;;;;;13.10;99.90;;;;;;6213804;23;20329;-86
2023/03/22 14:06:23;;;;;;;;;;;13.10;99.90;;;;;;6214530;23;19907;-87
2023/03/22 14:08:51;;;;;;;;;;;13.20;99.90;;;;;;6187648;23;19900;-88
2023/03/22 14:11:19;;;;;;;;;;;13.20;99.90;;;;;;6214453;23;19900;-86
2023/03/22 14:13:50;;;;;;;;;;;13.10;99.90;;;;;;6214524;23;19900;-86
2023/03/22 14:16:35;;;;;;;;;;;13.20;99.90;;;;;;6187056;23;19975;-86
2023/03/22 14:19:02;;;;;;;;;;;13.10;99.90;;;;;;6111804;23;19900;-86
2023/03/22 14:21:33;;;;;;;;;;;13.10;99.90;;;;;;6213948;23;20268;-86
2023/03/22 14:23:59;;;;;;;;;;;13.10;99.90;;;;;;6214641;23;19900;-87
2023/03/22 14:26:25;;;;;;;;;;;13.00;99.90;;;;;;6213271;23;19907;-87
2023/03/22 14:28:54;;;;;;;;;;;13.00;99.90;;;;;;6188100;23;19922;-86